createdAt,value
2023-02-04T00:00:17.000Z,3.4
2023-02-04T00:01:32.752Z,3.3
2023-02-04T00:02:48.000Z,3.2
2023-02-04T00:04:04.000Z,3.2
2023-02-04T00:05:20.000Z,3.1
2023-02-04T00:06:37.000Z,3.5
2023-02-04T00:07:53.000Z,3.4
2023-02-04T00:09:09.000Z,3.4
2023-02-04T00:10:25.000Z,3.6
2023-02-04T00:11:41.000Z,3.5
2023-02-04T00:12:58.093Z,3.4
2023-02-04T00:14:13.000Z,3
2023-02-04T00:15:30.000Z,3.6
2023-02-04T00:16:46.000Z,3.3
2023-02-04T00:18:01.000Z,3.4
2023-02-04T00:19:17.000Z,3.5
2023-02-04T00:20:34.048Z,3.7
2023-02-04T00:21:49.000Z,3.1
2023-02-04T00:23:06.000Z,3.2
2023-02-04T00:24:22.000Z,3.6
2023-02-04T00:25:38.000Z,3.2
2023-02-04T00:26:54.000Z,3.8
2023-02-04T00:28:10.831Z,3.5
2023-02-04T00:29:26.000Z,3.3
2023-02-04T00:30:43.115Z,3.3
2023-02-04T00:31:59.000Z,3.8
2023-02-04T00:33:15.000Z,3.3
2023-02-04T00:34:30.000Z,3.4
2023-02-04T00:35:46.000Z,3.5
2023-02-04T00:37:02.000Z,3.4
2023-02-04T00:38:18.000Z,3.5
2023-02-04T00:39:34.000Z,4
2023-02-04T00:40:51.000Z,3.9
2023-02-04T00:42:07.000Z,3.2
2023-02-04T00:43:23.597Z,3.5
2023-02-04T00:44:39.000Z,4
2023-02-04T00:45:55.000Z,3.5
2023-02-04T00:47:12.034Z,4
2023-02-04T00:48:27.000Z,3.8
2023-02-04T00:49:44.324Z,3.5
2023-02-04T00:50:59.000Z,3.6
2023-02-04T00:52:15.000Z,3.5
2023-02-04T00:53:31.802Z,4
2023-02-04T00:54:47.000Z,3.6
2023-02-04T00:56:04.074Z,4.3
2023-02-04T00:57:19.000Z,4.3
2023-02-04T00:58:36.000Z,3.8
2023-02-04T00:59:52.000Z,4
2023-02-04T01:01:08.000Z,3.7
2023-02-04T01:02:24.000Z,4.7
2023-02-04T01:03:40.000Z,4.6
2023-02-04T01:04:56.000Z,4.8
2023-02-04T01:06:13.000Z,4.3
2023-02-04T01:07:28.000Z,4.1
2023-02-04T01:08:44.000Z,3.9
2023-02-04T01:10:00.000Z,4.2
2023-02-04T01:11:16.000Z,4.1
2023-02-04T01:12:32.980Z,4.1
2023-02-04T01:13:48.000Z,4
2023-02-04T01:15:05.000Z,4.2
2023-02-04T01:16:21.000Z,4
2023-02-04T01:17:37.000Z,3.8
2023-02-04T01:18:53.000Z,3.8
2023-02-04T01:20:09.000Z,3.9
2023-02-04T01:21:25.000Z,4.3
2023-02-04T01:22:41.000Z,4.8
2023-02-04T01:23:57.000Z,3.9
2023-02-04T01:25:13.000Z,4.4
2023-02-04T01:26:29.000Z,4.3
2023-02-04T01:27:45.000Z,4.5
2023-02-04T01:29:01.000Z,4.1
2023-02-04T01:30:17.000Z,4.3
2023-02-04T01:31:33.000Z,4.6
2023-02-04T01:32:50.000Z,5.1
2023-02-04T01:34:06.000Z,4.8
2023-02-04T01:35:22.000Z,4.5
2023-02-04T01:36:38.000Z,5.2
2023-02-04T01:37:54.000Z,4.5
2023-02-04T01:39:10.000Z,4.3
2023-02-04T01:40:25.000Z,4.6
2023-02-04T01:41:42.376Z,4.1
2023-02-04T01:42:58.000Z,4.3
2023-02-04T01:44:14.000Z,4
2023-02-04T01:45:30.000Z,4.8
2023-02-04T01:46:46.000Z,4.2
2023-02-04T01:48:01.000Z,4.4
2023-02-04T01:49:18.000Z,4.6
2023-02-04T01:50:34.411Z,4.4
2023-02-04T01:51:50.000Z,4.1
2023-02-04T01:53:06.000Z,5.7
2023-02-04T01:54:22.000Z,4.8
2023-02-04T01:55:38.000Z,4.9
2023-02-04T01:56:54.000Z,6.3
2023-02-04T01:58:11.000Z,5
2023-02-04T01:59:27.000Z,6.3
2023-02-04T02:00:43.000Z,6.1
2023-02-04T02:01:59.000Z,6.5
2023-02-04T02:03:15.887Z,5.6
2023-02-04T02:04:31.029Z,5.6
2023-02-04T02:05:46.000Z,6.1
2023-02-04T02:07:03.000Z,5.7
2023-02-04T02:08:19.000Z,6.4
2023-02-04T02:09:35.000Z,5.3
2023-02-04T02:10:51.000Z,5.5
2023-02-04T02:12:07.000Z,6.1
2023-02-04T02:13:23.000Z,6.2
2023-02-04T02:14:39.000Z,5.8
2023-02-04T02:15:56.000Z,5.5
2023-02-04T02:17:12.486Z,5.9
2023-02-04T02:18:28.000Z,6.2
2023-02-04T02:19:44.000Z,6.1
2023-02-04T02:20:59.000Z,5.4
2023-02-04T02:22:15.000Z,6.2
2023-02-04T02:23:32.247Z,5.9
2023-02-04T02:24:48.379Z,5.8
2023-02-04T02:26:04.000Z,6
2023-02-04T02:27:20.000Z,4.8
2023-02-04T02:28:36.000Z,5.4
2023-02-04T02:29:52.000Z,5
2023-02-04T02:31:08.000Z,5.6
2023-02-04T02:32:25.254Z,4.7
2023-02-04T02:33:41.000Z,5.4
2023-02-04T02:34:57.000Z,5.1
2023-02-04T02:36:13.000Z,5.6
2023-02-04T02:37:28.000Z,4.9
2023-02-04T02:38:44.000Z,5.4
2023-02-04T02:40:00.000Z,5.5
2023-02-04T02:41:17.000Z,5.3
2023-02-04T02:42:33.000Z,5.4
2023-02-04T02:43:49.586Z,5.8
2023-02-04T02:45:05.000Z,6
2023-02-04T02:46:21.000Z,5.2
2023-02-04T02:47:37.000Z,5.4
2023-02-04T02:48:53.000Z,4.7
2023-02-04T02:50:10.000Z,5.4
2023-02-04T02:51:26.000Z,5
2023-02-04T02:52:42.000Z,5.2
2023-02-04T02:53:57.000Z,5.3
2023-02-04T02:55:13.000Z,4.6
2023-02-04T02:56:30.063Z,5
2023-02-04T02:57:45.000Z,4.7
2023-02-04T02:59:02.000Z,5
2023-02-04T03:00:18.491Z,5.9
2023-02-04T03:01:34.000Z,4.9
2023-02-04T03:02:50.000Z,5.5
2023-02-04T03:04:06.000Z,5.4
2023-02-04T03:05:23.082Z,6.1
2023-02-04T03:06:39.223Z,5.7
2023-02-04T03:07:55.000Z,6.2
2023-02-04T03:09:11.000Z,5.7
2023-02-04T03:10:26.000Z,5.9
2023-02-04T03:11:42.000Z,5.5
2023-02-04T03:12:58.970Z,6.3
2023-02-04T03:14:14.000Z,5.8
2023-02-04T03:15:31.000Z,6.1
2023-02-04T03:16:47.000Z,5.4
2023-02-04T03:18:03.000Z,6.3
2023-02-04T03:19:19.700Z,6.2
2023-02-04T03:20:35.000Z,5.7
2023-02-04T03:21:51.000Z,5.7
2023-02-04T03:23:08.142Z,5.7
2023-02-04T03:24:24.000Z,6.3
2023-02-04T03:25:40.000Z,6.1
2023-02-04T03:26:55.602Z,6.5
2023-02-04T03:28:11.744Z,6.3
2023-02-04T03:29:27.000Z,6.1
2023-02-04T03:30:43.000Z,6.5
2023-02-04T03:31:59.000Z,7.1
2023-02-04T03:33:16.336Z,6
2023-02-04T03:34:32.000Z,7
2023-02-04T03:35:48.629Z,7.3
2023-02-04T03:37:04.773Z,6.5
2023-02-04T03:38:20.930Z,7.2
2023-02-04T03:39:36.000Z,6.2
2023-02-04T03:40:53.211Z,6.5
2023-02-04T03:42:09.000Z,6.5
2023-02-04T03:43:24.000Z,7
2023-02-04T03:44:40.000Z,6.6
2023-02-04T03:45:56.000Z,7
2023-02-04T03:47:12.000Z,7.3
2023-02-04T03:48:28.000Z,7.5
2023-02-04T03:49:45.000Z,6.6
2023-02-04T03:51:01.000Z,7.1
2023-02-04T03:52:17.000Z,7.2
2023-02-04T03:53:33.000Z,7.8
2023-02-04T03:54:49.846Z,7.6
2023-02-04T03:56:05.000Z,7.4
2023-02-04T03:57:21.000Z,7.7
2023-02-04T03:58:38.287Z,7.8
2023-02-04T03:59:53.000Z,7.3
2023-02-04T04:01:09.604Z,7
2023-02-04T04:02:25.000Z,7.3
2023-02-04T04:03:41.000Z,7.5
2023-02-04T04:04:57.000Z,8.3
2023-02-04T04:06:13.000Z,8.4
2023-02-04T04:07:30.333Z,8.6
2023-02-04T04:08:46.000Z,7.9
2023-02-04T04:10:02.000Z,7.9
2023-02-04T04:11:18.000Z,8.1
2023-02-04T04:12:34.000Z,8.6
2023-02-04T04:13:50.000Z,9.2
2023-02-04T04:15:06.000Z,8.9
2023-02-04T04:16:22.000Z,8.4
2023-02-04T04:17:38.000Z,9.5
2023-02-04T04:18:54.000Z,10
2023-02-04T04:20:10.000Z,10.3
2023-02-04T04:21:26.000Z,10.4
2023-02-04T04:22:42.000Z,10.7
2023-02-04T04:23:59.000Z,10.5
2023-02-04T04:25:15.401Z,11.5
2023-02-04T04:26:31.000Z,11.2
2023-02-04T04:27:47.000Z,12.1
2023-02-04T04:29:03.000Z,11.5
2023-02-04T04:30:19.000Z,12.2
2023-02-04T04:31:35.000Z,11.4
2023-02-04T04:32:51.000Z,11.4
2023-02-04T04:34:07.000Z,12.5
2023-02-04T04:35:23.000Z,10.6
2023-02-04T04:36:39.000Z,11.1
2023-02-04T04:37:55.000Z,11.6
2023-02-04T04:39:12.055Z,11.6
2023-02-04T04:40:27.000Z,11.5
2023-02-04T04:41:44.000Z,12.3
2023-02-04T04:43:00.000Z,12.2
2023-02-04T04:44:16.000Z,12.4
2023-02-04T04:45:32.000Z,12.1
2023-02-04T04:46:48.000Z,12.2
2023-02-04T04:48:04.000Z,11.7
2023-02-04T04:49:20.000Z,12.7
2023-02-04T04:50:36.000Z,12.1
2023-02-04T04:51:52.000Z,12.1
2023-02-04T04:53:08.000Z,12.3
2023-02-04T04:54:24.842Z,11.1
2023-02-04T04:55:40.000Z,12.4
2023-02-04T04:56:56.000Z,12.9
2023-02-04T04:58:13.000Z,11.3
2023-02-04T04:59:29.000Z,11.8
2023-02-04T05:00:45.000Z,12.2
2023-02-04T05:02:01.000Z,12.6
2023-02-04T05:03:17.000Z,11.9
2023-02-04T05:04:33.000Z,13.3
2023-02-04T05:05:48.000Z,12.9
2023-02-04T05:07:05.000Z,12.7
2023-02-04T05:08:21.000Z,12.8
2023-02-04T05:09:37.000Z,12
2023-02-04T05:10:53.000Z,12
2023-02-04T05:12:09.919Z,12.3
2023-02-04T05:13:25.000Z,12.7
2023-02-04T05:14:41.000Z,13.3
2023-02-04T05:15:58.000Z,13.2
2023-02-04T05:17:14.000Z,13.3
2023-02-04T05:18:30.640Z,14.4
2023-02-04T05:19:46.783Z,14
2023-02-04T05:21:02.000Z,13.9
2023-02-04T05:22:17.000Z,12.9
2023-02-04T05:23:34.000Z,12.8
2023-02-04T05:24:50.000Z,13.2
2023-02-04T05:26:06.000Z,13
2023-02-04T05:27:22.000Z,12.3
2023-02-04T05:28:38.830Z,12.6
2023-02-04T05:29:54.000Z,11.6
2023-02-04T05:31:10.000Z,12.8
2023-02-04T05:32:27.272Z,12.5
2023-02-04T05:33:43.000Z,13.7
2023-02-04T05:34:59.000Z,12.9
2023-02-04T05:36:15.000Z,13.2
2023-02-04T05:37:31.862Z,12.6
2023-02-04T05:38:46.000Z,13.9
2023-02-04T05:40:03.173Z,12.9
2023-02-04T05:41:19.000Z,12.8
2023-02-04T05:42:35.000Z,12.4
2023-02-04T05:43:51.000Z,13.5
2023-02-04T05:45:07.000Z,12.3
2023-02-04T05:46:23.000Z,12.9
2023-02-04T05:47:39.000Z,12.4
2023-02-04T05:48:55.000Z,12.2
2023-02-04T05:50:12.000Z,13.4
2023-02-04T05:51:28.000Z,12.2
2023-02-04T05:52:44.000Z,13
2023-02-04T05:54:00.000Z,12.9
2023-02-04T05:55:15.000Z,14.1
2023-02-04T05:56:31.000Z,15.3
2023-02-04T05:57:48.000Z,16.9
2023-02-04T05:59:04.000Z,16.2
2023-02-04T06:00:20.541Z,15.2
2023-02-04T06:01:36.000Z,12.8
2023-02-04T06:02:51.000Z,13.2
2023-02-04T06:04:07.000Z,14.9
2023-02-04T06:05:23.000Z,14.5
2023-02-04T06:06:40.000Z,14.3
2023-02-04T06:07:56.000Z,16.1
2023-02-04T06:09:12.000Z,19
2023-02-04T06:10:28.000Z,17.1
2023-02-04T06:11:44.000Z,15.5
2023-02-04T06:13:00.000Z,16.7
2023-02-04T06:14:17.192Z,18.4
2023-02-04T06:15:33.000Z,16.5
2023-02-04T06:16:49.000Z,13.6
2023-02-04T06:18:05.627Z,14.1
2023-02-04T06:19:20.000Z,13.2
2023-02-04T06:20:36.000Z,12.7
2023-02-04T06:21:52.000Z,12.5
2023-02-04T06:23:09.000Z,12.3
2023-02-04T06:24:25.000Z,12.8
2023-02-04T06:25:41.000Z,12.6
2023-02-04T06:26:57.000Z,12.2
2023-02-04T06:28:13.000Z,11.9
2023-02-04T06:29:29.000Z,12.6
2023-02-04T06:30:45.000Z,11.9
2023-02-04T06:32:02.000Z,12.1
2023-02-04T06:33:18.000Z,11.1
2023-02-04T06:34:34.000Z,11.8
2023-02-04T06:35:49.000Z,11.3
2023-02-04T06:37:05.000Z,12.4
2023-02-04T06:38:21.000Z,12.3
2023-02-04T06:39:37.000Z,12.4
2023-02-04T06:40:54.000Z,11.8
2023-02-04T06:42:10.000Z,12.8
2023-02-04T06:43:26.600Z,13.1
2023-02-04T06:44:42.000Z,12.9
2023-02-04T06:45:58.000Z,13
2023-02-04T06:47:15.042Z,12.9
2023-02-04T06:48:30.000Z,12.1
2023-02-04T06:49:47.000Z,11.8
2023-02-04T06:51:03.000Z,13.1
2023-02-04T06:52:18.000Z,12.3
2023-02-04T06:53:34.793Z,11.7
2023-02-04T06:54:50.944Z,13.2
2023-02-04T06:56:06.000Z,12
2023-02-04T06:57:22.000Z,11.8
2023-02-04T06:58:39.000Z,11.8
2023-02-04T06:59:55.000Z,11.4
2023-02-04T07:01:11.000Z,11.3
2023-02-04T07:02:27.000Z,11.9
2023-02-04T07:03:43.970Z,11.3
2023-02-04T07:04:59.000Z,11.7
2023-02-04T07:06:16.000Z,11.6
2023-02-04T07:07:32.000Z,11.3
2023-02-04T07:08:47.000Z,11.1
2023-02-04T07:10:03.000Z,11
2023-02-04T07:11:19.000Z,11.2
2023-02-04T07:12:35.000Z,10.3
2023-02-04T07:13:51.000Z,10.4
2023-02-04T07:15:08.000Z,10.2
2023-02-04T07:16:24.000Z,10
2023-02-04T07:17:40.621Z,10.5
2023-02-04T07:18:56.000Z,10.2
2023-02-04T07:20:12.000Z,11
2023-02-04T07:21:28.000Z,10.4
2023-02-04T07:22:44.000Z,11
2023-02-04T07:24:01.000Z,9.8
2023-02-04T07:25:16.000Z,10.4
2023-02-04T07:26:32.651Z,10.1
2023-02-04T07:27:48.000Z,9.9
2023-02-04T07:29:04.000Z,10
2023-02-04T07:30:21.087Z,10
2023-02-04T07:31:37.000Z,10.7
2023-02-04T07:32:53.000Z,9.8
2023-02-04T07:34:09.533Z,10.3
2023-02-04T07:35:25.000Z,10.2
2023-02-04T07:36:41.831Z,9.9
2023-02-04T07:37:57.000Z,9.5
2023-02-04T07:39:13.000Z,10.3
2023-02-04T07:40:30.000Z,10.4
2023-02-04T07:41:45.000Z,10.7
2023-02-04T07:43:01.000Z,10.7
2023-02-04T07:44:17.000Z,10.1
2023-02-04T07:45:33.000Z,10.4
2023-02-04T07:46:50.014Z,9.7
2023-02-04T07:48:05.000Z,10.4
2023-02-04T07:49:22.316Z,10.8
2023-02-04T07:50:38.000Z,11
2023-02-04T07:51:54.000Z,10.5
2023-02-04T07:53:10.000Z,10.8
2023-02-04T07:54:26.000Z,10.1
2023-02-04T07:55:42.000Z,10.2
2023-02-04T07:56:58.000Z,10
2023-02-04T07:58:14.366Z,10
2023-02-04T07:59:30.000Z,10.8
2023-02-04T08:00:46.000Z,11.6
2023-02-04T08:02:02.000Z,12.8
2023-02-04T08:03:18.000Z,12.6
2023-02-04T08:04:34.000Z,12.3
2023-02-04T08:05:51.000Z,13.3
2023-02-04T08:07:07.000Z,11.8
2023-02-04T08:08:23.000Z,12.1
2023-02-04T08:09:39.000Z,11.6
2023-02-04T08:10:55.000Z,11.4
2023-02-04T08:12:11.000Z,11.6
2023-02-04T08:13:27.000Z,12
2023-02-04T08:14:43.000Z,12.6
2023-02-04T08:15:59.000Z,11.5
2023-02-04T08:17:15.000Z,10
2023-02-04T08:18:31.000Z,9.8
2023-02-04T08:19:47.000Z,8.1
2023-02-04T08:21:03.000Z,8.7
2023-02-04T08:22:19.000Z,7.6
2023-02-04T08:23:36.000Z,7.4
2023-02-04T08:24:52.000Z,6.7
2023-02-04T08:26:08.000Z,6.7
2023-02-04T08:27:24.000Z,6.3
2023-02-04T08:28:40.000Z,5.8
2023-02-04T08:29:56.000Z,5.8
2023-02-04T08:31:12.222Z,5.9
2023-02-04T08:32:28.000Z,5.4
2023-02-04T08:33:44.000Z,5.4
2023-02-04T08:35:00.000Z,5.4
2023-02-04T08:36:16.000Z,5.4
2023-02-04T08:37:32.000Z,5
2023-02-04T08:38:48.000Z,4.5
2023-02-04T08:40:05.000Z,4.1
2023-02-04T08:41:21.000Z,4.8
2023-02-04T08:42:37.550Z,4.6
2023-02-04T08:43:53.000Z,5.2
2023-02-04T08:45:09.000Z,5.4
2023-02-04T08:46:25.000Z,4.6
2023-02-04T08:47:40.000Z,4.2
2023-02-04T08:48:57.000Z,4.4
2023-02-04T08:50:13.000Z,3.6
2023-02-04T08:51:29.000Z,3.9
2023-02-04T08:52:45.000Z,3.6
2023-02-04T08:54:01.000Z,3.3
2023-02-04T08:55:17.000Z,3.6
2023-02-04T08:56:33.000Z,3.4
2023-02-04T08:57:50.000Z,3.9
2023-02-04T08:59:06.000Z,4
2023-02-04T09:00:22.000Z,3.9
2023-02-04T09:01:38.000Z,3.1
2023-02-04T09:02:54.000Z,2.8
2023-02-04T09:04:09.000Z,3
2023-02-04T09:05:26.235Z,2.7
2023-02-04T09:06:42.000Z,2.5
2023-02-04T09:07:58.000Z,2.4
2023-02-04T09:09:14.000Z,1.9
2023-02-04T09:10:30.000Z,2.6
2023-02-04T09:11:46.000Z,2.4
2023-02-04T09:13:03.120Z,2.1
2023-02-04T09:14:19.000Z,2
2023-02-04T09:15:35.000Z,2.3
2023-02-04T09:16:51.000Z,2.3
2023-02-04T09:18:07.000Z,2.6
2023-02-04T09:19:23.000Z,2
2023-02-04T09:20:38.000Z,2.3
2023-02-04T09:21:54.000Z,2
2023-02-04T09:23:11.000Z,2.2
2023-02-04T09:24:27.000Z,1.9
2023-02-04T09:25:43.000Z,2.3
2023-02-04T09:26:59.000Z,2
2023-02-04T09:28:15.000Z,1.9
2023-02-04T09:29:31.000Z,1.9
2023-02-04T09:30:47.000Z,2.1
2023-02-04T09:32:04.000Z,1.9
2023-02-04T09:33:20.000Z,1.8
2023-02-04T09:34:36.631Z,1.9
2023-02-04T09:35:52.000Z,1.9
2023-02-04T09:37:07.000Z,1.7
2023-02-04T09:38:23.000Z,1.8
2023-02-04T09:39:40.000Z,1.6
2023-02-04T09:40:56.000Z,1.6
2023-02-04T09:42:12.000Z,1.5
2023-02-04T09:43:28.673Z,1.8
2023-02-04T09:44:44.000Z,2.2
2023-02-04T09:46:00.000Z,1.9
2023-02-04T09:47:16.000Z,2.7
2023-02-04T09:48:33.000Z,2.7
2023-02-04T09:49:49.000Z,3.3
2023-02-04T09:51:05.000Z,2.4
2023-02-04T09:52:21.000Z,1.8
2023-02-04T09:53:36.000Z,2
2023-02-04T09:54:53.016Z,2.1
2023-02-04T09:56:08.000Z,1.9
2023-02-04T09:57:25.000Z,2
2023-02-04T09:58:41.000Z,1.3
2023-02-04T09:59:57.000Z,1.8
2023-02-04T10:01:13.765Z,1.5
2023-02-04T10:02:29.000Z,1.4
2023-02-04T10:03:45.000Z,1.9
2023-02-04T10:05:02.189Z,1.5
2023-02-04T10:06:18.000Z,1.8
2023-02-04T10:07:34.000Z,1.5
2023-02-04T10:08:50.000Z,1.7
2023-02-04T10:10:05.000Z,1.9
2023-02-04T10:11:21.000Z,1.9
2023-02-04T10:12:38.091Z,1.9
2023-02-04T10:13:54.235Z,1.8
2023-02-04T10:15:10.000Z,1.9
2023-02-04T10:16:26.000Z,1.3
2023-02-04T10:17:41.000Z,1.5
2023-02-04T10:18:57.000Z,1.3
2023-02-04T10:20:13.000Z,1.4
2023-02-04T10:21:29.000Z,1.3
2023-02-04T10:22:46.000Z,1.3
2023-02-04T10:24:02.000Z,1.5
2023-02-04T10:25:18.000Z,1.2
2023-02-04T10:26:34.000Z,1.1
2023-02-04T10:27:50.000Z,1.5
2023-02-04T10:29:06.000Z,1.4
2023-02-04T10:30:22.000Z,1.2
2023-02-04T10:31:39.000Z,1.3
2023-02-04T10:32:55.000Z,1.8
2023-02-04T10:34:10.621Z,1.9
2023-02-04T10:35:26.000Z,1.2
2023-02-04T10:36:42.000Z,1.2
2023-02-04T10:37:58.000Z,1.5
2023-02-04T10:39:14.000Z,1.3
2023-02-04T10:40:31.000Z,1.3
2023-02-04T10:41:47.522Z,1.4
2023-02-04T10:43:03.000Z,1
2023-02-04T10:44:19.000Z,1.2
2023-02-04T10:45:35.000Z,1.1
2023-02-04T10:46:52.086Z,1.3
2023-02-04T10:48:08.000Z,1.2
2023-02-04T10:49:24.000Z,1.2
2023-02-04T10:50:39.000Z,1.3
2023-02-04T10:51:55.000Z,1.1
2023-02-04T10:53:11.000Z,1.3
2023-02-04T10:54:27.991Z,1.2
2023-02-04T10:55:43.000Z,1.1
2023-02-04T10:57:00.000Z,1.1
2023-02-04T10:58:16.000Z,1.4
2023-02-04T10:59:32.575Z,1.1
2023-02-04T11:00:48.000Z,1.1
2023-02-04T11:02:04.000Z,1.1
2023-02-04T11:03:20.000Z,1
2023-02-04T11:04:36.000Z,1
2023-02-04T11:05:53.000Z,1
2023-02-04T11:07:08.000Z,1.2
2023-02-04T11:08:24.620Z,1.1
2023-02-04T11:09:40.000Z,1.3
2023-02-04T11:10:56.000Z,1.1
2023-02-04T11:12:12.000Z,1.1
2023-02-04T11:13:28.000Z,1.1
2023-02-04T11:14:45.000Z,1
2023-02-04T11:16:01.000Z,1.2
2023-02-04T11:17:17.000Z,1
2023-02-04T11:18:33.000Z,1.2
2023-02-04T11:19:49.944Z,1
2023-02-04T11:21:06.086Z,1.2
2023-02-04T11:22:22.000Z,1.4
2023-02-04T11:23:37.000Z,1.1
2023-02-04T11:24:53.000Z,1
2023-02-04T11:26:09.000Z,0.8
2023-02-04T11:27:25.000Z,1.1
2023-02-04T11:28:41.000Z,1.3
2023-02-04T11:29:57.000Z,1.1
2023-02-04T11:31:14.000Z,1.2
2023-02-04T11:32:30.000Z,1.1
2023-02-04T11:33:46.000Z,1.1
2023-02-04T11:35:02.000Z,1
2023-02-04T11:36:18.000Z,1.1
2023-02-04T11:37:34.000Z,1
2023-02-04T11:38:50.000Z,1.2
2023-02-04T11:40:06.000Z,1.1
2023-02-04T11:41:22.000Z,1.2
2023-02-04T11:42:38.000Z,1.1
2023-02-04T11:43:54.000Z,1.2
2023-02-04T11:45:10.924Z,1.3
2023-02-04T11:46:26.000Z,1.3
2023-02-04T11:47:42.000Z,1.2
2023-02-04T11:48:59.000Z,1.2
2023-02-04T11:50:15.000Z,1.3
2023-02-04T11:51:31.000Z,1.1
2023-02-04T11:52:47.799Z,1.5
2023-02-04T11:54:03.000Z,3.3
2023-02-04T11:55:19.000Z,5.8
2023-02-04T11:56:35.000Z,3.7
2023-02-04T11:57:51.000Z,1.8
2023-02-04T11:59:07.000Z,1.1
2023-02-04T12:00:23.000Z,1.2
2023-02-04T12:01:39.844Z,1.2
2023-02-04T12:02:55.000Z,1.3
2023-02-04T12:04:11.000Z,1.5
2023-02-04T12:05:28.000Z,1.2
2023-02-04T12:06:44.000Z,1.3
2023-02-04T12:08:00.000Z,1.4
2023-02-04T12:09:16.000Z,1
2023-02-04T12:10:32.000Z,1.1
2023-02-04T12:11:48.000Z,1.3
2023-02-04T12:13:03.000Z,1.2
2023-02-04T12:14:20.000Z,1.2
2023-02-04T12:15:36.000Z,1.2
2023-02-04T12:16:52.000Z,1.1
2023-02-04T12:18:08.000Z,1
2023-02-04T12:19:24.000Z,1.2
2023-02-04T12:20:40.000Z,1.1
2023-02-04T12:21:56.000Z,1.3
2023-02-04T12:23:13.000Z,1.2
2023-02-04T12:24:29.000Z,3.4
2023-02-04T12:25:45.654Z,5
2023-02-04T12:27:01.000Z,1.9
2023-02-04T12:28:17.000Z,1.6
2023-02-04T12:29:32.000Z,1.1
2023-02-04T12:30:49.258Z,1.4
2023-02-04T12:32:05.000Z,1.6
2023-02-04T12:33:21.000Z,1.4
2023-02-04T12:34:37.000Z,1.1
2023-02-04T12:35:53.000Z,1.2
2023-02-04T12:37:09.000Z,1
2023-02-04T12:38:25.000Z,1
2023-02-04T12:39:42.000Z,0.9
2023-02-04T12:40:58.000Z,1.1
2023-02-04T12:42:14.000Z,0.9
2023-02-04T12:43:30.000Z,1.3
2023-02-04T12:44:46.000Z,1.3
2023-02-04T12:46:01.000Z,1.1
2023-02-04T12:47:17.000Z,1.3
2023-02-04T12:48:34.000Z,0.9
2023-02-04T12:49:50.479Z,0.8
2023-02-04T12:51:06.000Z,1.1
2023-02-04T12:52:22.000Z,1.4
2023-02-04T12:53:38.000Z,1
2023-02-04T12:54:54.000Z,1.1
2023-02-04T12:56:10.000Z,1.3
2023-02-04T12:57:27.000Z,1.1
2023-02-04T12:58:43.000Z,0.8
2023-02-04T12:59:59.000Z,1.1
2023-02-04T13:01:15.000Z,0.9
2023-02-04T13:02:30.000Z,1.1
2023-02-04T13:03:46.000Z,1.3
2023-02-04T13:05:03.000Z,1.1
2023-02-04T13:06:19.000Z,1.3
2023-02-04T13:07:35.000Z,1.1
2023-02-04T13:08:51.000Z,1.1
2023-02-04T13:10:07.833Z,1.1
2023-02-04T13:11:23.000Z,1.1
2023-02-04T13:12:39.000Z,1
2023-02-04T13:13:56.000Z,1.2
2023-02-04T13:15:12.000Z,1.1
2023-02-04T13:16:28.561Z,0.8
2023-02-04T13:17:44.000Z,0.8
2023-02-04T13:18:59.000Z,0.9
2023-02-04T13:20:15.000Z,1.2
2023-02-04T13:21:31.000Z,1.2
2023-02-04T13:22:48.000Z,1.2
2023-02-04T13:24:04.000Z,1
2023-02-04T13:25:20.000Z,1
2023-02-04T13:26:36.000Z,1
2023-02-04T13:27:52.000Z,0.9
2023-02-04T13:29:08.000Z,1.1
2023-02-04T13:30:24.000Z,3.6
2023-02-04T13:31:41.000Z,6.2
2023-02-04T13:32:57.000Z,3.2
2023-02-04T13:34:13.000Z,4
2023-02-04T13:35:28.779Z,2.5
2023-02-04T13:36:44.000Z,2.4
2023-02-04T13:38:00.000Z,2.3
2023-02-04T13:39:17.215Z,2.2
2023-02-04T13:40:33.000Z,1.3
2023-02-04T13:41:49.000Z,1.3
2023-02-04T13:43:05.000Z,1.6
2023-02-04T13:44:21.000Z,1.3
2023-02-04T13:45:37.000Z,1.2
2023-02-04T13:46:53.000Z,1.1
2023-02-04T13:48:10.000Z,1.5
2023-02-04T13:49:26.000Z,1.5
2023-02-04T13:50:42.000Z,3.5
2023-02-04T13:51:57.000Z,2.5
2023-02-04T13:53:13.000Z,3.6
2023-02-04T13:54:29.978Z,2.7
2023-02-04T13:55:45.000Z,2
2023-02-04T13:57:02.000Z,3.3
2023-02-04T13:58:18.000Z,2.3
2023-02-04T13:59:34.000Z,2.7
2023-02-04T14:00:50.000Z,2.4
2023-02-04T14:02:06.000Z,1.8
2023-02-04T14:03:22.000Z,1.3
2023-02-04T14:04:38.000Z,1.6
2023-02-04T14:05:55.000Z,2
2023-02-04T14:07:11.000Z,1.3
2023-02-04T14:08:26.000Z,1.4
2023-02-04T14:09:42.744Z,1.2
2023-02-04T14:10:58.000Z,1.4
2023-02-04T14:12:14.000Z,1.4
2023-02-04T14:13:31.199Z,1.4
2023-02-04T14:14:47.000Z,1.5
2023-02-04T14:16:03.000Z,1.1
2023-02-04T14:17:19.000Z,1.4
2023-02-04T14:18:35.000Z,1.4
2023-02-04T14:19:51.000Z,1.2
2023-02-04T14:21:08.070Z,1.6
2023-02-04T14:22:24.197Z,1.5
2023-02-04T14:23:40.000Z,1.3
2023-02-04T14:24:55.000Z,1.5
2023-02-04T14:26:11.000Z,1.5
2023-02-04T14:27:27.000Z,1.6
2023-02-04T14:28:43.000Z,1.2
2023-02-04T14:29:59.000Z,3
2023-02-04T14:31:16.236Z,8.7
2023-02-04T14:32:31.408Z,3.9
2023-02-04T14:33:47.000Z,7
2023-02-04T14:35:03.698Z,6.4
2023-02-04T14:36:19.000Z,6.9
2023-02-04T14:37:35.000Z,3.9
2023-02-04T14:38:51.000Z,3.7
2023-02-04T14:40:08.000Z,3.8
2023-02-04T14:41:24.421Z,3.4
2023-02-04T14:42:40.000Z,3.7
2023-02-04T14:43:56.711Z,4.4
2023-02-04T14:45:12.000Z,3.9
2023-02-04T14:46:28.000Z,6.3
2023-02-04T14:47:45.154Z,5.9
2023-02-04T14:49:00.000Z,4.2
2023-02-04T14:50:16.000Z,4.7
2023-02-04T14:51:32.000Z,5
2023-02-04T14:52:48.000Z,3.5
2023-02-04T14:54:04.000Z,4.2
2023-02-04T14:55:20.000Z,6.2
2023-02-04T14:56:36.000Z,4.5
2023-02-04T14:57:53.000Z,3.3
2023-02-04T14:59:09.000Z,2.7
2023-02-04T15:01:41.000Z,3
2023-02-04T15:02:57.000Z,2.8
2023-02-04T15:04:13.000Z,2.1
2023-02-04T15:05:28.000Z,2.6
2023-02-04T15:06:45.000Z,2.4
2023-02-04T15:08:01.000Z,3.6
2023-02-04T15:09:17.650Z,3.4
2023-02-04T15:10:33.000Z,3.3
2023-02-04T15:11:49.000Z,2.2
2023-02-04T15:13:05.000Z,2.8
2023-02-04T15:14:22.000Z,2.7
2023-02-04T15:15:38.000Z,2.5
2023-02-04T15:16:54.000Z,3.1
2023-02-04T15:18:10.000Z,3.5
2023-02-04T15:19:26.000Z,3.4
2023-02-04T15:20:42.968Z,4.2
2023-02-04T15:21:57.000Z,2.8
2023-02-04T15:23:14.000Z,2.9
2023-02-04T15:24:30.414Z,2.5
2023-02-04T15:25:46.000Z,2.8
2023-02-04T15:27:02.000Z,3.7
2023-02-04T15:28:18.857Z,4
2023-02-04T15:29:34.000Z,2.8
2023-02-04T15:30:50.000Z,6.9
2023-02-04T15:32:07.000Z,6.4
2023-02-04T15:33:23.441Z,5.3
2023-02-04T15:34:39.000Z,5.2
2023-02-04T15:35:55.000Z,6.8
2023-02-04T15:37:11.000Z,7.9
2023-02-04T15:38:26.000Z,11.6
2023-02-04T15:39:42.000Z,9.2
2023-02-04T15:40:59.000Z,5
2023-02-04T15:42:15.000Z,6.3
2023-02-04T15:43:31.000Z,4.1
2023-02-04T15:44:47.000Z,6.4
2023-02-04T15:46:03.000Z,4.8
2023-02-04T15:47:19.000Z,3.4
2023-02-04T15:48:36.207Z,5.3
2023-02-04T15:49:52.000Z,4
2023-02-04T15:51:08.000Z,4
2023-02-04T15:52:24.000Z,4.7
2023-02-04T15:53:40.000Z,4.2
2023-02-04T15:54:55.000Z,2.9
2023-02-04T15:56:11.000Z,3.3
2023-02-04T15:57:28.240Z,3.6
2023-02-04T15:58:44.000Z,7.5
2023-02-04T16:00:00.000Z,8.4
2023-02-04T16:01:16.000Z,10.8
2023-02-04T16:02:32.000Z,12
2023-02-04T16:03:48.000Z,11.1
2023-02-04T16:05:05.118Z,19.5
2023-02-04T16:06:21.000Z,14.5
2023-02-04T16:07:37.000Z,15.2
2023-02-04T16:08:53.000Z,17.2
2023-02-04T16:10:09.000Z,22
2023-02-04T16:11:24.864Z,16.6
2023-02-04T16:12:40.000Z,17.7
2023-02-04T16:13:56.000Z,15.8
2023-02-04T16:15:13.000Z,9.6
2023-02-04T16:16:29.000Z,16.2
2023-02-04T16:17:45.000Z,12.9
2023-02-04T16:19:01.735Z,9.8
2023-02-04T16:20:17.000Z,7.1
2023-02-04T16:21:33.000Z,11.5
2023-02-04T16:22:49.000Z,10.1
2023-02-04T16:24:06.317Z,10.9
2023-02-04T16:25:22.000Z,7.5
2023-02-04T16:26:38.000Z,4.5
2023-02-04T16:27:53.000Z,6.3
2023-02-04T16:29:09.000Z,7
2023-02-04T16:30:25.000Z,7.8
2023-02-04T16:31:42.210Z,6.4
2023-02-04T16:32:58.000Z,7.5
2023-02-04T16:34:14.000Z,6.5
2023-02-04T16:35:30.000Z,7.3
2023-02-04T16:36:46.000Z,8.6
2023-02-04T16:38:02.000Z,6.1
2023-02-04T16:39:18.000Z,5.3
2023-02-04T16:40:35.241Z,5.8
2023-02-04T16:41:51.000Z,5.1
2023-02-04T16:43:07.000Z,6.9
2023-02-04T16:44:22.000Z,7.4
2023-02-04T16:45:38.000Z,7.3
2023-02-04T16:46:54.000Z,6.6
2023-02-04T16:48:10.000Z,7.1
2023-02-04T16:49:27.000Z,7.6
2023-02-04T16:50:43.000Z,7.1
2023-02-04T16:51:59.000Z,6.8
2023-02-04T16:53:15.000Z,6.5
2023-02-04T16:54:31.000Z,7.2
2023-02-04T16:55:47.000Z,7.1
2023-02-04T16:57:03.000Z,7
2023-02-04T16:58:20.000Z,6.7
2023-02-04T16:59:36.000Z,6.4
2023-02-04T17:00:51.000Z,7.1
2023-02-04T17:02:07.000Z,6.7
2023-02-04T17:03:23.000Z,7.4
2023-02-04T17:04:39.000Z,8.1
2023-02-04T17:05:55.000Z,9.3
2023-02-04T17:07:12.326Z,9.1
2023-02-04T17:08:28.469Z,10
2023-02-04T17:09:44.621Z,10
2023-02-04T17:11:00.000Z,9.8
2023-02-04T17:12:16.000Z,10.7
2023-02-04T17:13:32.000Z,13.9
2023-02-04T17:14:48.000Z,14.2
2023-02-04T17:16:05.000Z,11.1
2023-02-04T17:17:20.502Z,9.4
2023-02-04T17:18:36.000Z,7.5
2023-02-04T17:19:52.000Z,6.8
2023-02-04T17:21:08.000Z,7
2023-02-04T17:22:24.000Z,6.8
2023-02-04T17:23:41.231Z,6.3
2023-02-04T17:24:57.000Z,6.6
2023-02-04T17:26:13.000Z,6.3
2023-02-04T17:27:29.000Z,7.4